createdAt,value
2019-05-28T00:00:01.003Z,0.0
2019-05-28T00:00:51.159Z,0.0
2019-05-28T00:01:51.407Z,0.0
2019-05-28T00:02:51.648Z,0.0
2019-05-28T00:03:53.689Z,0.8
2019-05-28T00:04:51.696Z,0.8
2019-05-28T00:05:51.232Z,1.1
2019-05-28T00:06:51.700Z,1.1
2019-05-28T00:07:52.527Z,1.1
2019-05-28T00:08:52.126Z,0.0
2019-05-28T00:09:52.883Z,0.0
2019-05-28T00:10:51.867Z,0.5
2019-05-28T00:11:52.192Z,0.5
2019-05-28T00:12:51.743Z,0.5
2019-05-28T00:13:51.617Z,0.2
2019-05-28T00:14:53.415Z,0.2
2019-05-28T00:15:54.255Z,0.2
2019-05-28T00:16:51.493Z,0.5
2019-05-28T00:17:51.478Z,0.5
2019-05-28T00:18:51.685Z,0.5
2019-05-28T00:19:51.893Z,0.5
2019-05-28T00:20:52.137Z,0.5
2019-05-28T00:21:51.638Z,1.1
2019-05-28T00:22:53.721Z,1.1
2019-05-28T00:23:51.615Z,0.0
2019-05-28T00:24:51.990Z,0.0
2019-05-28T00:25:52.037Z,0.0
2019-05-28T00:26:51.171Z,0.0
2019-05-28T00:27:51.839Z,0.0
2019-05-28T00:28:51.287Z,1.3
2019-05-28T00:30:18.135Z,1.3
2019-05-28T00:30:51.291Z,1.3
2019-05-28T00:31:52.227Z,0.8
2019-05-28T00:32:51.827Z,0.8
2019-05-28T00:33:53.497Z,0.0
2019-05-28T00:34:51.237Z,0.0
2019-05-28T00:35:52.024Z,0.0
2019-05-28T00:36:52.325Z,0.0
2019-05-28T00:37:51.799Z,0.0
2019-05-28T00:38:53.950Z,0.0
2019-05-28T00:39:54.056Z,0.0
2019-05-28T00:40:52.859Z,0.0
2019-05-28T00:41:51.485Z,0.0
2019-05-28T00:42:51.333Z,0.0
2019-05-28T00:43:51.975Z,0.0
2019-05-28T00:44:51.818Z,0.0
2019-05-28T00:45:52.477Z,0.0
2019-05-28T00:46:51.510Z,0.0
2019-05-28T00:47:52.771Z,0.0
2019-05-28T00:48:51.551Z,0.0
2019-05-28T00:50:03.632Z,0.2
2019-05-28T00:50:51.788Z,0.2
2019-05-28T00:51:51.810Z,0.0
2019-05-28T00:52:51.772Z,0.0
2019-05-28T00:53:51.346Z,0.0
2019-05-28T00:54:52.003Z,0.0
2019-05-28T00:55:51.808Z,0.0
2019-05-28T00:56:53.204Z,1.1
2019-05-28T00:57:51.391Z,1.1
2019-05-28T00:58:51.751Z,1.1
2019-05-28T00:59:52.025Z,1.1
2019-05-28T01:00:52.428Z,1.1
2019-05-28T01:01:51.789Z,8.8
2019-05-28T01:02:51.778Z,8.8
2019-05-28T01:03:51.605Z,8.8
2019-05-28T01:04:53.406Z,1.6
2019-05-28T01:05:51.280Z,1.6
2019-05-28T01:06:52.306Z,1.1
2019-05-28T01:07:52.541Z,1.1
2019-05-28T01:09:19.766Z,1.1
2019-05-28T01:09:52.570Z,1.1
2019-05-28T01:10:52.302Z,1.1
2019-05-28T01:11:51.554Z,0.0
2019-05-28T01:12:51.552Z,0.0
2019-05-28T01:13:51.951Z,0.0
2019-05-28T01:14:51.221Z,0.0
2019-05-28T01:15:53.233Z,0.0
2019-05-28T01:16:52.140Z,0.0
2019-05-28T01:17:51.574Z,0.0
2019-05-28T01:18:53.031Z,0.0
2019-05-28T01:21:04.288Z,0.0
2019-05-28T01:22:04.218Z,1.1
2019-05-28T01:23:05.034Z,1.1
2019-05-28T01:24:04.285Z,1.1
2019-05-28T01:25:04.775Z,0.0
2019-05-28T01:26:04.229Z,0.0
2019-05-28T01:27:03.812Z,0.0
2019-05-28T01:28:04.693Z,0.0
2019-05-28T01:29:06.194Z,0.0
2019-05-28T01:30:04.893Z,0.0
2019-05-28T01:31:22.206Z,0.0
2019-05-28T01:32:04.624Z,0.0
2019-05-28T01:33:04.068Z,0.0
2019-05-28T01:34:04.329Z,0.0
2019-05-28T01:35:05.093Z,0.0
2019-05-28T01:36:04.354Z,0.0
2019-05-28T01:37:03.763Z,0.0
2019-05-28T01:38:04.424Z,0.0
2019-05-28T01:39:04.583Z,0.0
2019-05-28T01:40:03.881Z,0.0
2019-05-28T01:41:08.922Z,0.0
2019-05-28T01:42:05.044Z,0.0
2019-05-28T01:43:03.768Z,0.2
2019-05-28T01:44:04.861Z,0.2
2019-05-28T01:45:04.593Z,0.0
2019-05-28T01:46:03.903Z,0.0
2019-05-28T01:47:04.230Z,0.0
2019-05-28T01:48:04.457Z,0.0
2019-05-28T01:49:04.796Z,0.0
2019-05-28T01:50:04.160Z,2.7
2019-05-28T01:51:04.658Z,2.7
2019-05-28T01:52:03.920Z,2.7
2019-05-28T01:53:05.239Z,1.3
2019-05-28T01:54:05.007Z,1.3
2019-05-28T01:55:07.330Z,0.0
2019-05-28T01:56:05.265Z,0.0
2019-05-28T01:57:05.528Z,0.0
2019-05-28T01:58:04.587Z,1.6
2019-05-28T01:59:05.183Z,1.6
2019-05-28T02:00:04.041Z,1.6
2019-05-28T02:01:11.632Z,0.5
2019-05-28T02:02:04.285Z,0.5
2019-05-28T02:03:04.606Z,0.5
2019-05-28T02:04:04.848Z,0.5
2019-05-28T02:05:04.756Z,0.5
2019-05-28T02:06:04.284Z,1.1
2019-05-28T02:07:04.361Z,1.1
2019-05-28T02:08:04.230Z,0.0
2019-05-28T02:09:04.668Z,0.0
2019-05-28T02:10:04.327Z,0.0
2019-05-28T02:11:05.704Z,0.0
2019-05-28T02:12:04.464Z,0.0
2019-05-28T02:13:04.536Z,2.2
2019-05-28T02:14:04.917Z,2.2
2019-05-28T02:15:03.891Z,2.2
2019-05-28T02:16:03.952Z,0.2
2019-05-28T02:17:03.827Z,0.2
2019-05-28T02:18:20.109Z,0.0
2019-05-28T02:19:04.536Z,0.0
2019-05-28T02:20:04.150Z,0.0
2019-05-28T02:21:05.274Z,0.0
2019-05-28T02:22:03.985Z,0.0
2019-05-28T02:23:04.251Z,0.0
2019-05-28T02:24:04.286Z,0.0
2019-05-28T02:25:04.862Z,0.0
2019-05-28T02:26:04.923Z,0.0
2019-05-28T02:27:05.864Z,0.0
2019-05-28T02:28:05.791Z,0.0
2019-05-28T02:29:05.035Z,0.2
2019-05-28T02:30:05.401Z,0.2
2019-05-28T02:31:04.352Z,0.5
2019-05-28T02:32:05.350Z,0.5
2019-05-28T02:33:03.858Z,0.5
2019-05-28T02:34:03.952Z,0.0
2019-05-28T02:35:05.046Z,0.0
2019-05-28T02:36:07.138Z,0.0
2019-05-28T02:37:05.133Z,0.0
2019-05-28T02:38:04.093Z,0.0
2019-05-28T02:39:03.849Z,0.0
2019-05-28T02:40:03.901Z,0.0
2019-05-28T02:41:04.173Z,0.0
2019-05-28T02:42:04.340Z,0.0
2019-05-28T02:43:04.432Z,0.0
2019-05-28T02:44:04.373Z,0.0
2019-05-28T02:45:04.345Z,0.0
2019-05-28T02:48:09.388Z,0.0
2019-05-28T02:49:08.505Z,0.0
2019-05-28T02:50:08.742Z,0.0
2019-05-28T02:51:08.765Z,0.0
2019-05-28T02:52:09.205Z,0.0
2019-05-28T02:53:09.048Z,0.0
2019-05-28T02:54:09.041Z,0.0
2019-05-28T02:55:08.468Z,0.0
2019-05-28T02:56:08.499Z,0.0
2019-05-28T02:57:08.726Z,0.0
2019-05-28T02:58:08.544Z,0.0
2019-05-28T02:59:08.826Z,0.0
2019-05-28T03:00:08.769Z,0.0
2019-05-28T03:01:09.124Z,0.0
2019-05-28T03:02:08.729Z,0.0
2019-05-28T03:03:08.453Z,0.0
2019-05-28T03:04:09.098Z,0.0
2019-05-28T03:05:08.523Z,0.0
2019-05-28T03:06:19.550Z,0.0
2019-05-28T03:07:09.579Z,0.5
2019-05-28T03:08:09.193Z,0.5
2019-05-28T03:09:08.509Z,0.8
2019-05-28T03:10:09.108Z,0.8
2019-05-28T03:11:09.866Z,0.8
2019-05-28T03:12:08.821Z,0.0
2019-05-28T03:13:09.586Z,0.0
2019-05-28T03:14:08.887Z,0.0
2019-05-28T03:15:08.583Z,0.0
2019-05-28T03:16:08.604Z,0.0
2019-05-28T03:17:09.287Z,0.0
2019-05-28T03:18:08.631Z,0.0
2019-05-28T03:19:09.005Z,0.0
2019-05-28T03:20:08.999Z,0.0
2019-05-28T03:21:08.797Z,0.0
2019-05-28T03:22:08.657Z,0.2
2019-05-28T03:23:09.082Z,0.2
2019-05-28T03:24:09.376Z,0.5
2019-05-28T03:25:09.486Z,0.5
2019-05-28T03:26:10.099Z,0.5
2019-05-28T03:27:09.375Z,0.0
2019-05-28T03:28:08.830Z,0.0
2019-05-28T03:29:09.062Z,0.0
2019-05-28T03:30:08.614Z,0.0
2019-05-28T03:31:08.661Z,0.0
2019-05-28T03:32:09.737Z,0.0
2019-05-28T03:33:08.812Z,0.0
2019-05-28T03:34:09.421Z,0.0
2019-05-28T03:35:08.603Z,0.0
2019-05-28T03:36:10.719Z,0.0
2019-05-28T03:37:09.344Z,1.9
2019-05-28T03:38:08.569Z,1.9
2019-05-28T03:39:08.669Z,1.9
2019-05-28T03:40:09.155Z,12.2
2019-05-28T03:41:09.082Z,12.2
2019-05-28T03:42:08.884Z,12.2
2019-05-28T03:43:10.351Z,12.2
2019-05-28T03:44:09.169Z,12.2
2019-05-28T03:45:08.861Z,4.4
2019-05-28T03:46:08.818Z,4.4
2019-05-28T03:47:09.532Z,3.0
2019-05-28T03:48:08.799Z,3.0
2019-05-28T03:49:09.732Z,3.0
2019-05-28T03:50:08.762Z,1.9
2019-05-28T03:51:09.018Z,1.9
2019-05-28T03:52:08.677Z,1.3
2019-05-28T03:53:08.746Z,1.3
2019-05-28T03:54:09.578Z,1.3
2019-05-28T03:55:09.062Z,1.3
2019-05-28T03:56:09.301Z,1.3
2019-05-28T03:57:08.567Z,3.3
2019-05-28T03:58:09.666Z,3.3
2019-05-28T03:59:09.779Z,3.3
2019-05-28T04:00:08.779Z,1.9
2019-05-28T04:01:08.801Z,1.9
2019-05-28T04:02:20.636Z,23.0
2019-05-28T04:03:08.576Z,23.0
2019-05-28T04:04:09.152Z,23.0
2019-05-28T04:05:08.769Z,4.1
2019-05-28T04:06:09.313Z,4.1
2019-05-28T04:07:09.324Z,4.1
2019-05-28T04:08:09.610Z,1.9
2019-05-28T04:09:08.633Z,1.9
2019-05-28T04:10:08.763Z,1.1
2019-05-28T04:11:09.269Z,1.1
2019-05-28T04:12:10.478Z,1.1
2019-05-28T04:13:09.106Z,1.9
2019-05-28T04:14:09.001Z,1.9
2019-05-28T04:15:08.934Z,5.2
2019-05-28T04:16:18.968Z,5.2
2019-05-28T04:17:08.942Z,5.2
2019-05-28T04:18:09.207Z,3.0
2019-05-28T04:19:09.110Z,3.0
2019-05-28T04:20:10.231Z,4.1
2019-05-28T04:21:08.747Z,4.1
2019-05-28T04:22:09.044Z,4.1
2019-05-28T04:23:08.638Z,4.1
2019-05-28T04:24:09.697Z,4.1
2019-05-28T04:25:09.294Z,4.1
2019-05-28T04:26:09.485Z,4.1
2019-05-28T04:27:09.423Z,4.1
2019-05-28T04:28:09.328Z,3.6
2019-05-28T04:29:09.056Z,3.6
2019-05-28T04:30:09.178Z,4.4
2019-05-28T04:31:10.105Z,4.4
2019-05-28T04:32:09.502Z,4.4
2019-05-28T04:33:10.187Z,5.0
2019-05-28T04:34:12.569Z,5.0
2019-05-28T04:35:10.134Z,5.0
2019-05-28T04:36:09.051Z,5.5
2019-05-28T04:37:08.858Z,5.5
2019-05-28T04:38:09.083Z,4.7
2019-05-28T04:39:09.237Z,4.7
2019-05-28T04:40:09.208Z,4.7
2019-05-28T04:41:08.742Z,1.3
2019-05-28T04:42:09.040Z,1.3
2019-05-28T04:43:09.283Z,2.5
2019-05-28T04:44:09.366Z,2.5
2019-05-28T04:45:08.898Z,2.5
2019-05-28T04:46:09.704Z,3.6
2019-05-28T04:47:09.321Z,3.6
2019-05-28T04:48:09.237Z,3.3
2019-05-28T04:49:08.890Z,3.3
2019-05-28T04:50:09.333Z,3.3
2019-05-28T04:51:09.278Z,22.2
2019-05-28T04:52:18.933Z,22.2
2019-05-28T04:53:09.053Z,5.8
2019-05-28T04:54:09.458Z,5.8
2019-05-28T04:55:10.345Z,5.8
2019-05-28T04:56:08.834Z,4.1
2019-05-28T04:57:09.204Z,4.1
2019-05-28T04:58:08.936Z,6.1
2019-05-28T04:59:08.922Z,6.1
2019-05-28T05:00:09.147Z,6.1
2019-05-28T05:01:09.646Z,6.1
2019-05-28T05:02:09.793Z,6.1
2019-05-28T05:03:09.384Z,6.1
2019-05-28T05:04:08.823Z,6.1
2019-05-28T05:05:09.354Z,6.1
2019-05-28T05:06:09.009Z,4.4
2019-05-28T05:07:08.777Z,4.4
2019-05-28T05:08:09.915Z,4.4
2019-05-28T05:09:08.808Z,5.8
2019-05-28T05:10:09.090Z,5.8
2019-05-28T05:11:09.445Z,5.0
2019-05-28T05:12:09.074Z,5.0
2019-05-28T05:13:08.959Z,5.0
2019-05-28T05:14:09.416Z,4.7
2019-05-28T05:15:09.775Z,4.7
2019-05-28T05:16:08.732Z,3.8
2019-05-28T05:17:09.284Z,3.8
2019-05-28T05:18:09.209Z,3.8
2019-05-28T05:19:09.138Z,5.5
2019-05-28T05:23:27.206Z,5.5
2019-05-28T05:23:42.018Z,5.5
2019-05-28T05:24:41.914Z,4.7
2019-05-28T05:25:42.113Z,4.7
2019-05-28T05:26:41.779Z,5.5
2019-05-28T05:27:41.991Z,5.5
2019-05-28T05:28:41.696Z,4.7
2019-05-28T05:29:41.883Z,4.7
2019-05-28T05:30:41.999Z,4.7
2019-05-28T05:31:43.459Z,3.0
2019-05-28T05:32:42.324Z,3.0
2019-05-28T05:33:41.903Z,9.7
2019-05-28T05:34:43.042Z,9.7
2019-05-28T05:35:41.866Z,9.7
2019-05-28T05:36:42.487Z,3.3
2019-05-28T05:37:41.840Z,3.3
2019-05-28T05:38:41.768Z,3.3
2019-05-28T05:39:41.866Z,3.6
2019-05-28T05:40:42.590Z,3.6
2019-05-28T05:41:42.467Z,3.6
2019-05-28T05:42:41.761Z,3.6
2019-05-28T05:43:42.362Z,3.6
2019-05-28T05:44:41.801Z,3.6
2019-05-28T05:45:41.897Z,3.6
2019-05-28T05:46:41.938Z,1.9
2019-05-28T05:47:41.677Z,1.9
2019-05-28T05:48:41.673Z,1.9
2019-05-28T05:49:41.665Z,12.7
2019-05-28T05:50:44.955Z,12.7
2019-05-28T05:51:41.735Z,4.1
2019-05-28T05:52:41.737Z,4.1
2019-05-28T05:53:42.208Z,4.1
2019-05-28T05:54:41.800Z,3.6
2019-05-28T05:55:42.098Z,3.6
2019-05-28T05:56:41.966Z,2.5
2019-05-28T05:57:42.073Z,2.5
2019-05-28T05:58:41.819Z,2.5
2019-05-28T05:59:41.909Z,3.0
2019-05-28T06:00:42.284Z,3.0
2019-05-28T06:01:41.695Z,4.1
2019-05-28T06:02:42.047Z,4.1
2019-05-28T06:03:42.490Z,4.1
2019-05-28T06:04:41.700Z,1.3
2019-05-28T06:05:43.148Z,1.3
2019-05-28T06:06:42.164Z,15.8
2019-05-28T06:07:55.244Z,15.8
2019-05-28T06:08:42.106Z,15.8
2019-05-28T06:09:41.725Z,3.6
2019-05-28T06:10:41.685Z,3.6
2019-05-28T06:11:41.955Z,3.6
2019-05-28T06:12:42.059Z,1.6
2019-05-28T06:13:41.789Z,1.6
2019-05-28T06:14:42.194Z,2.2
2019-05-28T06:15:41.762Z,2.2
2019-05-28T06:16:42.328Z,2.2
2019-05-28T06:17:43.253Z,0.8
2019-05-28T06:18:42.536Z,0.8
2019-05-28T06:19:41.755Z,0.0
2019-05-28T06:20:42.465Z,0.0
2019-05-28T06:21:42.231Z,0.0
2019-05-28T06:22:41.779Z,0.0
2019-05-28T06:23:42.790Z,0.0
2019-05-28T06:24:42.416Z,0.0
2019-05-28T06:25:42.263Z,0.0
2019-05-28T06:26:41.755Z,0.0
2019-05-28T06:28:34.964Z,0.0
2019-05-28T06:28:45.653Z,0.0
2019-05-28T06:29:45.687Z,0.0
2019-05-28T06:30:45.418Z,0.0
2019-05-28T06:31:45.790Z,0.0
2019-05-28T06:32:46.126Z,0.0
2019-05-28T06:33:55.067Z,0.0
2019-05-28T06:34:45.789Z,0.0
2019-05-28T06:35:45.457Z,0.0
2019-05-28T06:36:46.070Z,0.0
2019-05-28T06:37:45.423Z,0.0
2019-05-28T06:39:57.771Z,0.0
2019-05-28T06:40:58.269Z,0.0
2019-05-28T06:41:57.843Z,0.0
2019-05-28T06:42:58.101Z,0.0
2019-05-28T06:43:57.700Z,0.0
2019-05-28T06:44:58.569Z,0.0
2019-05-28T06:45:58.075Z,0.0
2019-05-28T06:46:58.129Z,0.0
2019-05-28T06:47:58.086Z,0.0
2019-05-28T06:48:57.739Z,0.0
2019-05-28T06:49:57.944Z,0.0
2019-05-28T06:50:57.808Z,0.0
2019-05-28T06:51:57.860Z,0.0
2019-05-28T06:52:57.945Z,0.0
2019-05-28T06:53:57.692Z,0.0
2019-05-28T06:54:58.847Z,0.0
2019-05-28T06:55:57.876Z,0.0
2019-05-28T06:56:57.913Z,0.0
2019-05-28T06:57:58.297Z,0.0
2019-05-28T06:58:58.412Z,0.0
2019-05-28T06:59:57.665Z,0.0
2019-05-28T07:00:58.320Z,0.0
2019-05-28T07:01:57.752Z,0.0
2019-05-28T07:02:57.979Z,0.0
2019-05-28T07:04:10.737Z,0.0
2019-05-28T07:04:57.670Z,0.0
2019-05-28T07:06:05.620Z,0.0
2019-05-28T07:06:59.119Z,0.0
2019-05-28T07:07:57.731Z,0.0
2019-05-28T07:09:26.170Z,0.0
2019-05-28T07:09:57.812Z,0.0
2019-05-28T07:10:58.623Z,0.0
2019-05-28T07:11:57.864Z,0.0
2019-05-28T07:12:57.841Z,0.0
2019-05-28T07:13:57.997Z,0.0
2019-05-28T07:14:58.893Z,0.0
2019-05-28T07:15:57.775Z,0.0
2019-05-28T07:16:57.828Z,0.0
2019-05-28T07:17:59.632Z,0.0
2019-05-28T07:18:58.168Z,0.0
2019-05-28T07:19:59.232Z,0.0
2019-05-28T07:20:57.845Z,0.0
2019-05-28T07:21:58.304Z,0.0
2019-05-28T07:22:57.917Z,0.0
2019-05-28T07:23:58.006Z,0.0
2019-05-28T07:24:57.764Z,0.0
2019-05-28T07:25:57.790Z,0.0
2019-05-28T07:26:57.773Z,0.0
2019-05-28T07:28:07.297Z,0.0
2019-05-28T07:28:58.074Z,0.0
2019-05-28T07:29:58.585Z,0.0
2019-05-28T07:30:58.047Z,0.0
2019-05-28T07:31:57.878Z,0.0
2019-05-28T07:32:57.930Z,0.0
2019-05-28T07:33:57.916Z,2.7
2019-05-28T07:34:57.759Z,2.7
2019-05-28T07:35:58.208Z,0.5
2019-05-28T07:36:57.740Z,0.5
2019-05-28T07:37:57.923Z,0.5
2019-05-28T07:38:57.798Z,1.1
2019-05-28T07:39:57.845Z,1.1
2019-05-28T07:40:58.365Z,1.1
2019-05-28T07:41:57.814Z,1.1
2019-05-28T07:42:58.074Z,1.1
2019-05-28T07:43:57.748Z,2.2
2019-05-28T07:44:57.752Z,2.2
2019-05-28T07:45:57.724Z,2.2
2019-05-28T07:46:58.038Z,2.2
2019-05-28T07:47:58.274Z,2.2
2019-05-28T07:49:00.305Z,4.7
2019-05-28T07:49:58.097Z,4.7
2019-05-28T07:50:58.273Z,4.7
2019-05-28T07:51:58.313Z,4.7
2019-05-28T07:52:57.858Z,4.7
2019-05-28T07:53:58.212Z,4.4
2019-05-28T07:54:57.716Z,4.4
2019-05-28T07:55:58.462Z,4.4
2019-05-28T07:56:57.858Z,5.2
2019-05-28T07:57:58.151Z,5.2
2019-05-28T07:58:57.770Z,3.0
2019-05-28T07:59:57.936Z,3.0
2019-05-28T08:00:58.033Z,3.0
2019-05-28T08:01:58.312Z,0.5
2019-05-28T08:02:58.401Z,0.5
2019-05-28T08:03:58.144Z,0.2
2019-05-28T08:04:57.872Z,0.2
2019-05-28T08:05:57.966Z,0.2
2019-05-28T08:06:58.139Z,0.2
2019-05-28T08:07:57.921Z,0.2
2019-05-28T08:08:58.244Z,18.8
2019-05-28T08:09:58.373Z,18.8
2019-05-28T08:10:57.826Z,18.8
2019-05-28T08:11:57.795Z,5.5
2019-05-28T08:12:57.800Z,5.5
2019-05-28T08:13:58.003Z,4.1
2019-05-28T08:14:57.932Z,4.1
2019-05-28T08:16:14.732Z,4.1
2019-05-28T08:16:57.840Z,8.0
2019-05-28T08:17:58.130Z,8.0
2019-05-28T08:18:58.000Z,5.2
2019-05-28T08:19:58.377Z,5.2
2019-05-28T08:20:57.813Z,5.2
2019-05-28T08:21:58.023Z,5.8
2019-05-28T08:22:58.016Z,5.8
2019-05-28T08:23:58.066Z,3.3
2019-05-28T08:24:58.066Z,3.3
2019-05-28T08:26:01.136Z,3.3
2019-05-28T08:26:58.150Z,3.3
2019-05-28T08:28:09.566Z,3.3
2019-05-28T08:28:59.542Z,3.3
2019-05-28T08:29:58.336Z,2.5
2019-05-28T08:31:13.695Z,2.5
2019-05-28T08:31:58.292Z,1.9
2019-05-28T08:33:14.655Z,1.9
2019-05-28T08:33:57.917Z,1.9
2019-05-28T08:35:04.853Z,5.2
2019-05-28T08:35:57.936Z,5.2
2019-05-28T08:37:05.338Z,3.3
2019-05-28T08:37:58.122Z,3.3
2019-05-28T08:38:58.103Z,3.3
2019-05-28T08:39:58.170Z,2.5
2019-05-28T08:40:57.872Z,2.5
2019-05-28T08:41:58.384Z,2.5
2019-05-28T08:42:58.786Z,2.5
2019-05-28T08:43:58.063Z,2.5
2019-05-28T08:44:57.987Z,4.4
2019-05-28T08:45:58.071Z,4.4
2019-05-28T08:46:57.971Z,0.8
2019-05-28T08:47:58.387Z,0.8
2019-05-28T08:48:58.168Z,0.8
2019-05-28T08:49:57.932Z,2.7
2019-05-28T08:53:05.327Z,2.7
2019-05-28T08:54:04.788Z,1.6
2019-05-28T08:55:04.826Z,1.3
2019-05-28T08:56:04.887Z,1.3
2019-05-28T08:57:04.387Z,5.8
2019-05-28T08:58:04.892Z,5.8
2019-05-28T08:59:04.403Z,5.8
2019-05-28T09:00:04.532Z,6.3
2019-05-28T09:01:05.086Z,6.3
2019-05-28T09:02:04.340Z,8.0
2019-05-28T09:04:17.782Z,8.0
2019-05-28T09:05:25.938Z,4.4
2019-05-28T09:06:17.680Z,4.4
2019-05-28T09:07:17.751Z,4.4
2019-05-28T09:08:17.348Z,4.4
2019-05-28T09:09:18.365Z,4.4
2019-05-28T09:10:17.731Z,5.5
2019-05-28T09:11:20.067Z,5.5
2019-05-28T09:12:18.329Z,4.4
2019-05-28T09:13:17.437Z,4.4
2019-05-28T09:14:18.140Z,4.4
2019-05-28T09:15:17.868Z,7.2
2019-05-28T09:16:17.224Z,7.2
2019-05-28T09:17:17.482Z,7.2
2019-05-28T09:18:18.169Z,5.2
2019-05-28T09:19:17.283Z,5.2
2019-05-28T09:20:17.393Z,3.8
2019-05-28T09:21:17.621Z,3.8
2019-05-28T09:22:24.728Z,3.8
2019-05-28T09:23:45.849Z,2.7
2019-05-28T09:24:17.355Z,2.7
2019-05-28T09:25:17.352Z,33.0
2019-05-28T09:26:17.444Z,33.0
2019-05-28T09:27:17.647Z,33.0
2019-05-28T09:28:28.366Z,4.4
2019-05-28T09:29:17.267Z,4.4
2019-05-28T09:30:17.235Z,1.9
2019-05-28T09:31:17.784Z,1.9
2019-05-28T09:32:17.550Z,1.9
2019-05-28T09:33:18.560Z,2.2
2019-05-28T09:34:17.197Z,2.2
2019-05-28T09:35:17.238Z,1.9
2019-05-28T09:36:17.409Z,1.9
2019-05-28T09:37:17.290Z,1.9
2019-05-28T09:38:17.711Z,1.6
2019-05-28T09:39:17.821Z,1.6
2019-05-28T09:40:17.837Z,2.2
2019-05-28T09:41:17.445Z,2.2
2019-05-28T09:42:17.282Z,2.2
2019-05-28T09:43:17.313Z,9.1
2019-05-28T09:44:18.027Z,9.1
2019-05-28T09:45:22.496Z,3.6
2019-05-28T09:46:17.210Z,3.6
2019-05-28T09:47:17.859Z,3.6
2019-05-28T09:48:18.486Z,3.6
2019-05-28T09:49:17.890Z,3.6
2019-05-28T09:50:29.182Z,3.6
2019-05-28T09:51:17.257Z,8.3
2019-05-28T09:52:17.402Z,8.3
2019-05-28T09:53:17.402Z,6.1
2019-05-28T09:54:17.275Z,6.1
2019-05-28T09:55:17.686Z,6.1
2019-05-28T09:56:17.345Z,3.3
2019-05-28T09:57:17.758Z,3.3
2019-05-28T09:58:17.372Z,0.0
2019-05-28T09:59:17.770Z,0.0
2019-05-28T10:00:17.422Z,0.0
2019-05-28T10:01:17.507Z,5.0
2019-05-28T10:02:17.905Z,5.0
2019-05-28T10:03:17.416Z,1.6
2019-05-28T10:04:46.312Z,1.6
2019-05-28T10:05:17.541Z,1.6
2019-05-28T10:06:18.177Z,1.3
2019-05-28T10:07:17.929Z,1.3
2019-05-28T10:08:17.782Z,0.8
2019-05-28T10:09:17.604Z,0.8
2019-05-28T10:10:17.640Z,0.8
2019-05-28T10:11:17.479Z,2.2
2019-05-28T10:12:17.375Z,2.2
2019-05-28T10:13:17.493Z,5.0
2019-05-28T10:14:18.060Z,5.0
2019-05-28T10:15:17.617Z,5.0
2019-05-28T10:16:17.722Z,2.2
2019-05-28T10:17:17.499Z,2.2
2019-05-28T10:18:17.427Z,2.2
2019-05-28T10:19:17.477Z,3.0
2019-05-28T10:20:17.372Z,3.0
2019-05-28T10:21:19.164Z,2.7
2019-05-28T10:22:17.882Z,2.7
2019-05-28T10:23:17.446Z,2.7
2019-05-28T10:25:59.041Z,18.0
2019-05-28T10:26:10.706Z,18.0
2019-05-28T10:27:10.424Z,5.2
2019-05-28T10:28:11.147Z,5.2
2019-05-28T10:29:10.837Z,5.2
2019-05-28T10:30:10.742Z,5.2
2019-05-28T10:31:10.401Z,1.1
2019-05-28T10:32:10.679Z,1.1
2019-05-28T10:33:10.932Z,1.1
2019-05-28T10:34:10.904Z,1.9
2019-05-28T10:35:10.785Z,1.9
2019-05-28T10:36:10.633Z,0.5
2019-05-28T10:37:10.690Z,0.5
2019-05-28T10:38:14.887Z,0.5
2019-05-28T10:39:10.600Z,2.2
2019-05-28T10:40:10.680Z,2.2
2019-05-28T10:41:10.719Z,2.2
2019-05-28T10:42:10.439Z,1.6
2019-05-28T10:43:39.308Z,1.6
2019-05-28T10:44:10.961Z,2.5
2019-05-28T10:45:10.473Z,2.5
2019-05-28T10:46:12.197Z,2.5
2019-05-28T10:47:10.902Z,3.0
2019-05-28T10:48:11.111Z,3.0
2019-05-28T10:49:10.421Z,2.5
2019-05-28T10:50:10.846Z,2.5
2019-05-28T10:51:11.117Z,2.5
2019-05-28T10:52:10.455Z,4.7
2019-05-28T10:53:10.767Z,4.7
2019-05-28T10:55:23.015Z,3.6
2019-05-28T10:56:23.364Z,3.6
2019-05-28T10:57:23.366Z,6.3
2019-05-28T10:58:22.864Z,6.3
2019-05-28T10:59:22.881Z,4.1
2019-05-28T11:00:23.446Z,4.1
2019-05-28T11:01:23.341Z,4.1
2019-05-28T11:02:23.378Z,3.0
2019-05-28T11:03:23.320Z,3.0
2019-05-28T11:04:23.553Z,4.4
2019-05-28T11:05:25.178Z,4.4
2019-05-28T11:06:23.132Z,4.4
2019-05-28T11:07:23.330Z,4.1
2019-05-28T11:08:23.274Z,4.1
2019-05-28T11:09:23.066Z,4.1
2019-05-28T11:10:27.400Z,4.1
2019-05-28T11:11:22.901Z,4.1
2019-05-28T11:12:22.935Z,3.0
2019-05-28T11:13:23.096Z,3.0
2019-05-28T11:14:22.995Z,4.1
2019-05-28T11:15:24.055Z,4.1
2019-05-28T11:16:23.005Z,4.1
2019-05-28T11:17:23.410Z,5.0
2019-05-28T11:18:23.262Z,5.0
2019-05-28T11:19:23.305Z,4.4
2019-05-28T11:20:23.359Z,4.4
2019-05-28T11:21:22.938Z,4.4
2019-05-28T11:22:23.071Z,3.6
2019-05-28T11:23:22.904Z,3.6
2019-05-28T11:24:24.024Z,3.6
2019-05-28T11:25:23.243Z,4.4
2019-05-28T11:26:23.385Z,4.4
2019-05-28T11:27:23.941Z,6.3
2019-05-28T11:28:22.877Z,6.3
2019-05-28T11:29:23.112Z,6.3
2019-05-28T11:30:23.648Z,6.6
2019-05-28T11:31:23.065Z,6.6
2019-05-28T11:32:22.922Z,3.8
2019-05-28T11:33:23.706Z,3.8
2019-05-28T11:34:33.417Z,3.8
2019-05-28T11:35:23.054Z,4.7
2019-05-28T11:36:23.262Z,4.7
2019-05-28T11:37:23.001Z,4.1
2019-05-28T11:38:23.332Z,4.1
2019-05-28T11:39:22.875Z,4.1
2019-05-28T11:40:22.981Z,4.1
2019-05-28T11:41:38.199Z,4.1
2019-05-28T11:42:23.252Z,3.6
2019-05-28T11:43:22.938Z,3.6
2019-05-28T11:44:23.512Z,3.6
2019-05-28T11:45:24.685Z,2.7
2019-05-28T11:46:23.211Z,2.7
2019-05-28T11:47:23.459Z,3.3
2019-05-28T11:48:22.983Z,3.3
2019-05-28T11:49:22.991Z,3.3
2019-05-28T11:50:23.139Z,3.3
2019-05-28T11:51:23.010Z,3.3
2019-05-28T11:52:23.267Z,5.0
2019-05-28T11:53:22.959Z,5.0
2019-05-28T11:54:23.150Z,5.0
2019-05-28T11:55:23.190Z,6.1
2019-05-28T11:56:23.521Z,6.1
2019-05-28T11:57:23.191Z,6.1
2019-05-28T11:58:23.438Z,3.3
2019-05-28T11:59:23.091Z,3.3
2019-05-28T12:00:23.515Z,6.3
2019-05-28T12:01:33.079Z,6.3
2019-05-28T12:02:23.488Z,6.3
2019-05-28T12:03:22.929Z,4.4
2019-05-28T12:04:23.781Z,4.4
2019-05-28T12:05:23.143Z,8.0
2019-05-28T12:06:23.133Z,8.0
2019-05-28T12:07:25.979Z,8.0
2019-05-28T12:08:23.515Z,3.8
2019-05-28T12:09:23.473Z,3.8
2019-05-28T12:10:23.150Z,4.4
2019-05-28T12:11:23.350Z,4.4
2019-05-28T12:12:23.387Z,4.4
2019-05-28T12:13:23.448Z,4.4
2019-05-28T12:14:23.022Z,4.4
2019-05-28T12:15:22.976Z,3.0
2019-05-28T12:16:23.234Z,3.0
2019-05-28T12:17:37.980Z,3.0
2019-05-28T12:18:33.242Z,3.3
2019-05-28T12:19:23.617Z,3.3
2019-05-28T12:20:23.320Z,4.1
2019-05-28T12:21:23.006Z,4.1
2019-05-28T12:22:23.425Z,4.1
2019-05-28T12:23:23.197Z,2.5
2019-05-28T12:24:27.837Z,2.5
2019-05-28T12:25:23.342Z,2.5
2019-05-28T12:26:23.443Z,11.9
2019-05-28T12:27:23.640Z,11.9
2019-05-28T12:28:52.850Z,13.3
2019-05-28T12:29:23.467Z,13.3
2019-05-28T12:30:23.209Z,13.3
2019-05-28T12:31:23.264Z,13.3
2019-05-28T12:32:24.188Z,13.3
2019-05-28T12:33:23.913Z,7.2
2019-05-28T12:34:23.718Z,7.2
2019-05-28T12:35:27.950Z,7.2
2019-05-28T12:36:23.046Z,8.0
2019-05-28T12:37:23.181Z,8.0
2019-05-28T12:38:23.735Z,8.8
2019-05-28T12:39:25.391Z,8.8
2019-05-28T12:40:23.140Z,8.8
2019-05-28T12:41:23.073Z,7.2
2019-05-28T12:42:23.416Z,7.2
2019-05-28T12:43:23.042Z,30.0
2019-05-28T12:44:23.296Z,30.0
2019-05-28T12:45:34.376Z,30.0
2019-05-28T12:46:23.067Z,8.0
2019-05-28T12:47:23.819Z,8.0
2019-05-28T12:48:23.194Z,26.9
2019-05-28T12:49:39.631Z,26.9
2019-05-28T12:50:23.697Z,26.9
2019-05-28T12:51:23.021Z,5.8
2019-05-28T12:52:23.126Z,5.8
2019-05-28T12:53:23.502Z,4.7
2019-05-28T12:54:23.205Z,4.7
2019-05-28T12:55:23.106Z,4.7
2019-05-28T12:56:23.518Z,6.1
2019-05-28T12:57:23.180Z,6.1
2019-05-28T12:58:40.470Z,6.1
2019-05-28T13:01:32.716Z,4.1
2019-05-28T13:02:32.725Z,3.8
2019-05-28T13:03:33.224Z,4.4
2019-05-28T13:04:32.697Z,4.4
2019-05-28T13:05:33.330Z,4.4
2019-05-28T13:06:33.010Z,5.2
2019-05-28T13:07:32.692Z,5.2
2019-05-28T13:08:32.949Z,5.2
2019-05-28T13:09:33.165Z,6.1
2019-05-28T13:10:32.795Z,6.1
2019-05-28T13:11:32.775Z,6.1
2019-05-28T13:12:32.983Z,6.1
2019-05-28T13:13:33.194Z,6.1
2019-05-28T13:14:33.070Z,5.2
2019-05-28T13:15:32.942Z,5.2
2019-05-28T13:16:32.821Z,4.7
2019-05-28T13:17:32.934Z,4.7
2019-05-28T13:18:32.591Z,4.7
2019-05-28T13:19:49.209Z,4.1
2019-05-28T13:20:33.240Z,4.1
2019-05-28T13:21:32.694Z,5.2
2019-05-28T13:22:32.585Z,5.2
2019-05-28T13:23:33.255Z,5.2
2019-05-28T13:24:32.926Z,6.1
2019-05-28T13:25:33.077Z,6.1
2019-05-28T13:26:33.050Z,5.5
2019-05-28T13:27:32.628Z,5.5
2019-05-28T13:28:32.801Z,5.5
2019-05-28T13:29:45.284Z,5.5
2019-05-28T13:30:33.218Z,5.5
2019-05-28T13:31:33.197Z,3.8
2019-05-28T13:32:33.263Z,3.8
2019-05-28T13:33:33.229Z,3.8
2019-05-28T13:34:33.164Z,5.0
2019-05-28T13:35:33.319Z,5.0
2019-05-28T13:36:33.124Z,5.0
2019-05-28T13:37:33.176Z,3.8
2019-05-28T13:38:32.828Z,3.8
2019-05-28T13:39:33.928Z,17.7
2019-05-28T13:40:32.628Z,17.7
2019-05-28T13:41:33.028Z,17.7
2019-05-28T13:42:33.039Z,3.3
2019-05-28T13:43:33.240Z,3.3
2019-05-28T13:44:33.306Z,2.2
2019-05-28T13:45:33.153Z,2.2
2019-05-28T13:46:33.126Z,2.2
2019-05-28T13:47:34.346Z,0.0
2019-05-28T13:48:32.913Z,0.0
2019-05-28T13:50:01.239Z,3.6
2019-05-28T13:50:33.532Z,3.6
2019-05-28T13:51:33.358Z,3.6
2019-05-28T13:52:32.786Z,3.6
2019-05-28T13:53:33.057Z,3.6
2019-05-28T13:54:33.156Z,1.9
2019-05-28T13:55:33.015Z,1.9
2019-05-28T13:56:32.739Z,1.9
2019-05-28T13:57:32.898Z,2.2
2019-05-28T13:58:34.102Z,2.2